Time;durP1;ratioP1;P1;durP2;ratioP2;P2;SDS_P1;SDS_P2;PMS_P1;PMS_P2;Temp;Humidity;BMP_temperature;BMP_pressure;BME280_temperature;BME280_humidity;BME280_pressure;Samples;Min_cycle;Max_cycle;Signal;HPM_P1;HPM_P2
2023/03/29 00:02:28;;;;;;;18.00;6.05;;;;;;;5.85;88.57;101288.94;5055153;28;20040;-56
2023/03/29 00:05:00;;;;;;;16.75;6.75;;;;;;;5.72;88.32;101283.69;5075443;28;20055;-56
2023/03/29 00:07:28;;;;;;;18.73;6.37;;;;;;;5.74;89.20;101279.16;5057029;28;20055;-56
2023/03/29 00:09:55;;;;;;;23.10;7.30;;;;;;;5.82;87.96;101274.22;5074349;28;20076;-56
2023/03/29 00:12:22;;;;;;;19.48;6.75;;;;;;;5.67;89.38;101265.59;5057695;28;20095;-56
2023/03/29 00:14:48;;;;;;;18.67;6.70;;;;;;;5.71;89.37;101274.09;5075186;28;20076;-56
2023/03/29 00:17:15;;;;;;;20.13;7.10;;;;;;;5.71;89.71;101266.22;5057612;28;20098;-57
2023/03/29 00:19:44;;;;;;;17.83;7.07;;;;;;;5.72;90.02;101265.28;5075225;28;20079;-56
2023/03/29 00:22:11;;;;;;;20.83;7.13;;;;;;;5.70;89.74;101270.66;5056801;28;20490;-56
2023/03/29 00:24:38;;;;;;;20.65;8.23;;;;;;;5.73;90.32;101257.28;5074567;28;20128;-56
2023/03/29 00:27:05;;;;;;;21.73;8.13;;;;;;;5.79;90.39;101253.34;5056850;28;20518;-56
2023/03/29 00:29:32;;;;;;;34.67;8.48;;;;;;;5.76;89.97;101256.19;5075133;28;20493;-56
2023/03/29 00:31:59;;;;;;;23.08;7.97;;;;;;;5.72;90.54;101245.03;5057224;28;20478;-56
2023/03/29 00:34:29;;;;;;;19.70;7.75;;;;;;;5.76;90.17;101253.56;5074837;28;20094;-56
2023/03/29 00:36:57;;;;;;;18.42;8.23;;;;;;;5.68;89.83;101235.69;5050886;28;20528;-56
2023/03/29 00:39:25;;;;;;;18.23;7.28;;;;;;;5.70;89.75;101241.69;5074657;28;20110;-56
2023/03/29 00:41:52;;;;;;;18.85;6.93;;;;;;;5.62;89.45;101237.91;5057427;28;20044;-56
2023/03/29 00:44:55;;;;;;;23.90;8.20;;;;;;;5.67;90.52;101248.97;5074469;28;20086;-56
2023/03/29 00:47:47;;;;;;;18.92;7.80;;;;;;;5.61;90.23;101239.72;5056737;28;20078;-56
2023/03/29 00:50:29;;;;;;;24.23;8.02;;;;;;;5.68;90.19;101242.75;5074245;28;20052;-56
2023/03/29 00:53:12;;;;;;;22.73;8.07;;;;;;;5.57;90.27;101243.53;5069076;28;20127;-56
2023/03/29 00:55:47;;;;;;;19.70;7.88;;;;;;;5.58;90.50;101239.94;5057232;28;25179;-57
2023/03/29 00:58:21;;;;;;;18.55;7.85;;;;;;;5.58;90.79;101235.53;5074419;28;20047;-56
2023/03/29 01:00:56;;;;;;;30.23;8.82;;;;;;;5.56;90.43;101221.59;5055629;28;21128;-56
2023/03/29 01:03:29;;;;;;;23.75;8.70;;;;;;;5.62;89.98;101222.13;5054039;28;20064;-56
2023/03/29 01:06:01;;;;;;;20.95;8.18;;;;;;;5.73;89.89;101220.41;5041957;28;20053;-56
2023/03/29 01:08:34;;;;;;;20.45;8.57;;;;;;;5.74;90.28;101222.06;5075905;28;20058;-55
2023/03/29 01:11:21;;;;;;;25.83;8.45;;;;;;;5.63;90.21;101215.91;5058393;28;20397;-57
2023/03/29 01:14:15;;;;;;;19.38;8.02;;;;;;;5.60;90.76;101226.66;5074143;28;20036;-57
2023/03/29 01:16:42;;;;;;;20.58;7.93;;;;;;;5.66;91.21;101224.44;5046067;28;20072;-56
2023/03/29 01:19:14;;;;;;;20.00;7.97;;;;;;;5.64;90.34;101223.72;5053945;28;20548;-56
2023/03/29 01:21:50;;;;;;;23.70;8.63;;;;;;;5.69;90.12;101216.31;5047417;28;20091;-56
2023/03/29 01:24:45;;;;;;;18.77;8.23;;;;;;;5.71;89.12;101214.44;5073669;28;20055;-57
2023/03/29 01:27:22;;;;;;;20.65;7.65;;;;;;;5.74;89.20;101213.34;5056253;28;20123;-56
2023/03/29 01:30:02;;;;;;;20.95;7.47;;;;;;;5.76;90.05;101203.53;5073913;28;20086;-56
2023/03/29 01:32:36;;;;;;;21.75;7.45;;;;;;;5.75;88.71;101199.25;5056749;28;20548;-56
2023/03/29 01:35:11;;;;;;;25.05;8.13;;;;;;;5.79;88.58;101198.06;5073666;28;20048;-56
2023/03/29 01:37:49;;;;;;;21.45;7.57;;;;;;;5.88;88.16;101194.75;5047698;28;20123;-56
2023/03/29 01:40:16;;;;;;;21.08;7.72;;;;;;;5.74;89.12;101187.84;5073248;28;20124;-56
2023/03/29 01:42:54;;;;;;;20.98;7.78;;;;;;;5.87;89.10;101185.16;5054498;28;20048;-56
2023/03/29 01:45:29;;;;;;;20.02;7.65;;;;;;;5.90;87.69;101169.16;5053354;28;20402;-56
2023/03/29 01:48:02;;;;;;;19.50;7.85;;;;;;;5.77;88.36;101174.47;5042317;28;20127;-56
2023/03/29 01:50:52;;;;;;;21.08;7.53;;;;;;;5.81;87.93;101177.72;5073138;28;20115;-56
2023/03/29 01:53:27;;;;;;;22.08;7.50;;;;;;;5.96;87.51;101175.78;5049281;28;20084;-56
2023/03/29 01:56:03;;;;;;;21.65;8.00;;;;;;;5.72;88.54;101176.59;5053126;28;20049;-56
2023/03/29 01:58:35;;;;;;;24.75;8.55;;;;;;;5.74;88.82;101172.06;5046752;28;20044;-56
2023/03/29 02:01:04;;;;;;;23.10;8.30;;;;;;;5.85;88.58;101173.91;5073052;28;20068;-56
2023/03/29 02:03:33;;;;;;;20.65;7.53;;;;;;;5.84;88.40;101155.59;5055616;28;20181;-56
2023/03/29 02:06:03;;;;;;;21.02;8.48;;;;;;;5.69;88.78;101165.44;5071976;28;20044;-56
2023/03/29 02:08:31;;;;;;;22.80;8.05;;;;;;;5.76;88.97;101161.41;5070492;28;20040;-55
2023/03/29 02:10:57;;;;;;;24.02;7.82;;;;;;;5.72;88.86;101152.91;5088543;28;20040;-56
2023/03/29 02:13:24;;;;;;;20.80;7.93;;;;;;;5.68;88.71;101155.91;5055694;28;20052;-56
2023/03/29 02:15:51;;;;;;;22.90;8.23;;;;;;;5.75;88.64;101147.44;5073251;28;20048;-56
2023/03/29 02:18:18;;;;;;;21.75;8.15;;;;;;;5.92;87.30;101145.34;5055673;28;20481;-56
2023/03/29 02:20:49;;;;;;;20.63;8.10;;;;;;;5.91;87.89;101141.00;5072988;28;20083;-56
2023/03/29 02:23:27;;;;;;;21.65;8.48;;;;;;;6.00;88.34;101147.44;5070863;28;20389;-56
2023/03/29 02:25:55;;;;;;;21.00;7.90;;;;;;;6.01;88.08;101142.06;5087329;28;20165;-57
2023/03/29 02:28:25;;;;;;;22.25;8.27;;;;;;;5.96;87.37;101146.81;5055694;28;20048;-55
2023/03/29 02:31:03;;;;;;;21.30;7.90;;;;;;;5.91;87.53;101144.50;5073133;28;20494;-57
2023/03/29 02:33:40;;;;;;;21.33;7.53;;;;;;;6.03;86.57;101141.94;5055296;28;20040;-57
2023/03/29 02:36:14;;;;;;;24.67;8.32;;;;;;;6.10;86.99;101149.25;5105245;28;20097;-57
2023/03/29 02:38:41;;;;;;;20.15;7.80;;;;;;;5.99;87.09;101151.88;5042764;28;20051;-56
2023/03/29 02:41:09;;;;;;;23.65;7.25;;;;;;;6.05;86.07;101158.47;5072337;28;20051;-57
2023/03/29 02:43:39;;;;;;;22.00;8.10;;;;;;;5.97;86.32;101156.41;5054328;28;20307;-57
2023/03/29 02:46:06;;;;;;;22.63;8.25;;;;;;;6.06;87.36;101155.72;5072535;28;20052;-57
2023/03/29 02:48:36;;;;;;;19.95;8.40;;;;;;;6.02;88.94;101156.06;5056645;28;20374;-57
2023/03/29 02:51:13;;;;;;;20.42;8.82;;;;;;;6.11;87.36;101148.31;5053066;28;20049;-57
2023/03/29 02:53:46;;;;;;;20.63;8.18;;;;;;;6.15;87.06;101149.75;5053495;28;20307;-56
2023/03/29 02:56:13;;;;;;;20.85;8.73;;;;;;;6.12;88.63;101149.16;5072479;28;20457;-56
2023/03/29 02:58:39;;;;;;;25.77;8.73;;;;;;;6.17;87.33;101143.53;5055041;28;20288;-57
2023/03/29 03:01:08;;;;;;;24.10;8.02;;;;;;;6.13;87.15;101133.22;5072468;28;20090;-56
2023/03/29 03:03:35;;;;;;;21.55;8.90;;;;;;;6.15;86.53;101141.03;5054133;28;20049;-56
2023/03/29 03:06:04;;;;;;;22.95;8.70;;;;;;;6.10;87.41;101133.47;5052588;28;20098;-56
2023/03/29 03:08:31;;;;;;;20.08;8.23;;;;;;;6.20;86.87;101141.50;5045756;28;20120;-56
2023/03/29 03:10:58;;;;;;;22.40;8.68;;;;;;;6.32;86.79;101142.38;5066095;28;20045;-56
2023/03/29 03:13:25;;;;;;;20.63;8.38;;;;;;;6.42;85.50;101135.47;5044456;28;20041;-57
2023/03/29 03:15:52;;;;;;;22.48;8.52;;;;;;;6.34;85.58;101133.38;5065937;28;20094;-56
2023/03/29 03:18:19;;;;;;;23.77;8.88;;;;;;;6.24;85.79;101128.94;5069527;28;20048;-56
2023/03/29 03:20:54;;;;;;;20.85;8.75;;;;;;;6.38;85.18;101128.72;5047326;28;20045;-56
2023/03/29 03:23:21;;;;;;;21.65;8.50;;;;;;;6.41;85.24;101128.50;5066248;28;20041;-56
2023/03/29 03:25:48;;;;;;;27.75;8.70;;;;;;;6.43;86.25;101128.38;5066623;28;20131;-57
2023/03/29 03:28:15;;;;;;;22.63;9.30;;;;;;;6.27;86.67;101092.66;5074436;28;20056;-56
2023/03/29 03:30:42;;;;;;;22.27;8.20;;;;;;;6.48;85.51;101113.06;5077913;28;20489;-57
2023/03/29 03:33:19;;;;;;;23.10;8.63;;;;;;;6.40;85.79;101118.06;5070256;28;20037;-57
2023/03/29 03:36:08;;;;;;;26.23;8.75;;;;;;;6.44;85.99;101115.09;5055654;28;20045;-57
2023/03/29 03:38:37;;;;;;;20.88;8.80;;;;;;;6.42;84.94;101118.78;5046586;28;20126;-57
2023/03/29 03:41:06;;;;;;;22.02;8.85;;;;;;;6.40;86.28;101113.63;5066024;28;20052;-57
2023/03/29 03:43:33;;;;;;;27.25;9.45;;;;;;;6.45;85.89;101115.94;5076141;28;20106;-56
2023/03/29 03:46:01;;;;;;;28.67;9.15;;;;;;;6.40;85.22;101118.91;5058380;28;20049;-56
2023/03/29 03:48:28;;;;;;;23.30;9.68;;;;;;;6.47;86.59;101114.84;5075543;28;20060;-56
2023/03/29 03:51:08;;;;;;;23.25;8.95;;;;;;;6.43;86.75;101108.13;5057784;28;20052;-57
2023/03/29 03:53:35;;;;;;;27.65;9.30;;;;;;;6.51;86.14;101102.25;5075635;28;20521;-56
2023/03/29 03:56:22;;;;;;;25.08;9.55;;;;;;;6.49;86.42;101112.94;5057550;28;20516;-56
2023/03/29 03:59:06;;;;;;;24.15;9.60;;;;;;;6.65;85.68;101122.28;5070970;28;20391;-56
2023/03/29 04:01:42;;;;;;;26.65;9.90;;;;;;;6.52;86.10;101109.22;5068843;28;20127;-57
2023/03/29 04:04:15;;;;;;;23.48;9.75;;;;;;;6.52;86.35;101101.31;5063942;28;20044;-56
2023/03/29 04:07:01;;;;;;;27.40;9.00;;;;;;;6.58;86.57;101107.91;5054059;28;20045;-56
2023/03/29 04:09:48;;;;;;;27.80;9.32;;;;;;;6.59;87.91;101107.78;5067183;28;20090;-56
2023/03/29 04:12:24;;;;;;;22.52;9.40;;;;;;;6.62;88.63;101110.19;5074778;28;20055;-56
2023/03/29 04:14:51;;;;;;;27.33;10.43;;;;;;;6.60;89.14;101108.63;5057534;28;20042;-56
2023/03/29 04:17:20;;;;;;;30.17;9.85;;;;;;;6.56;91.92;101105.38;5074730;28;20036;-57
2023/03/29 04:19:55;;;;;;;31.08;9.82;;;;;;;6.54;92.93;101100.22;5057439;28;20401;-56
2023/03/29 04:22:24;;;;;;;25.85;10.40;;;;;;;6.58;94.42;101100.84;5074823;28;20059;-56
2023/03/29 04:24:52;;;;;;;27.67;10.43;;;;;;;6.53;94.93;101090.66;5057211;28;20044;-60
2023/03/29 04:27:39;;;;;;;24.90;10.25;;;;;;;6.63;95.22;101097.84;5074169;28;20040;-57
2023/03/29 04:30:15;;;;;;;25.80;9.60;;;;;;;6.52;95.81;101104.78;5057535;28;20055;-57
2023/03/29 04:33:02;;;;;;;30.75;11.10;;;;;;;6.56;96.44;101099.28;5074304;28;20037;-56
2023/03/29 04:35:29;;;;;;;28.65;10.32;;;;;;;6.56;97.07;101088.75;5057426;28;20045;-57
2023/03/29 04:37:56;;;;;;;29.00;10.43;;;;;;;6.52;97.45;101090.78;5069019;28;20045;-56
2023/03/29 04:40:23;;;;;;;25.15;10.18;;;;;;;6.56;97.14;101089.56;5047471;28;20121;-57
2023/03/29 04:43:01;;;;;;;28.27;10.30;;;;;;;6.54;97.07;101076.50;5074681;28;20049;-57
2023/03/29 04:45:29;;;;;;;29.05;9.23;;;;;;;6.58;97.17;101079.75;5057342;28;20370;-57
2023/03/29 04:48:09;;;;;;;25.42;9.20;;;;;;;6.58;98.22;101078.91;5087904;28;20440;-56
2023/03/29 04:50:39;;;;;;;21.20;8.35;;;;;;;6.58;97.46;101077.09;5057579;28;20071;-56
2023/03/29 04:53:06;;;;;;;23.42;7.85;;;;;;;6.62;97.19;101073.28;5074454;28;20048;-57
2023/03/29 04:55:33;;;;;;;20.08;8.07;;;;;;;6.60;95.80;101077.81;5051486;28;20068;-57
2023/03/29 04:58:01;;;;;;;22.38;7.43;;;;;;;6.62;96.43;101080.34;5054504;28;20069;-57
2023/03/29 05:00:38;;;;;;;20.45;7.15;;;;;;;6.59;95.86;101077.97;5039251;28;20041;-56
2023/03/29 05:03:25;;;;;;;18.13;7.53;;;;;;;6.68;95.38;101074.59;5053847;28;20140;-57
2023/03/29 05:06:10;;;;;;;13.20;6.55;;;;;;;6.66;94.82;101072.09;5049329;28;20386;-57
2023/03/29 05:08:39;;;;;;;18.50;6.45;;;;;;;6.62;95.17;101068.03;5073983;28;20490;-56
2023/03/29 05:11:26;;;;;;;16.52;7.13;;;;;;;6.54;95.06;101065.97;5055697;28;20417;-56
2023/03/29 05:13:55;;;;;;;16.20;6.07;;;;;;;6.61;95.43;101063.69;5073939;28;20040;-56
2023/03/29 05:16:25;;;;;;;15.30;6.25;;;;;;;6.65;95.18;101066.94;5055921;28;20068;-57
2023/03/29 05:18:56;;;;;;;15.50;6.18;;;;;;;6.52;94.49;101067.06;5074186;28;20058;-56
2023/03/29 05:21:25;;;;;;;15.68;5.63;;;;;;;6.62;94.76;101067.16;5044692;28;20501;-56
2023/03/29 05:23:52;;;;;;;14.40;4.82;;;;;;;6.65;94.74;101059.03;5073594;28;20083;-55
2023/03/29 05:26:38;;;;;;;12.98;4.95;;;;;;;6.66;93.25;101063.34;5055424;28;20044;-56
2023/03/29 05:29:07;;;;;;;11.57;5.10;;;;;;;6.69;93.47;101060.44;5073679;28;20124;-56
2023/03/29 05:31:36;;;;;;;10.65;4.63;;;;;;;6.72;93.79;101057.56;5055983;28;20049;-56
2023/03/29 05:34:04;;;;;;;13.25;5.10;;;;;;;6.70;94.29;101055.06;5072664;28;20502;-56
2023/03/29 05:36:33;;;;;;;17.23;5.38;;;;;;;6.63;93.97;101045.94;5042661;28;20053;-56
2023/03/29 05:39:00;;;;;;;12.15;4.88;;;;;;;6.56;92.74;101049.19;5064631;28;20049;-56
2023/03/29 05:41:27;;;;;;;12.23;5.25;;;;;;;6.68;93.14;101048.25;5046497;28;20048;-56
2023/03/29 05:44:14;;;;;;;11.82;5.22;;;;;;;6.62;92.29;101051.34;5072785;28;20047;-55
2023/03/29 05:46:43;;;;;;;14.65;4.93;;;;;;;6.66;91.90;101036.97;5046997;28;20558;-56
2023/03/29 05:49:15;;;;;;;12.83;5.53;;;;;;;6.70;91.59;101038.41;5053141;28;20123;-56
2023/03/29 05:52:02;;;;;;;12.63;5.60;;;;;;;6.66;92.37;101036.97;5048634;28;20378;-56
2023/03/29 05:54:31;;;;;;;11.93;5.32;;;;;;;6.75;92.04;101038.88;5073037;28;20482;-56
2023/03/29 05:56:58;;;;;;;13.77;5.65;;;;;;;6.63;91.67;101045.13;5045310;28;20051;-56
2023/03/29 05:59:27;;;;;;;14.05;5.60;;;;;;;6.66;91.83;101040.44;5053164;28;20044;-56
2023/03/29 06:01:54;;;;;;;10.32;5.32;;;;;;;6.64;91.94;101055.56;5047156;28;20438;-56
2023/03/29 06:04:23;;;;;;;12.32;5.65;;;;;;;6.75;91.96;101062.63;5073253;28;20045;-56
2023/03/29 06:07:11;;;;;;;14.13;5.97;;;;;;;6.83;91.92;101054.91;5055340;28;20048;-56
2023/03/29 06:09:40;;;;;;;14.27;6.18;;;;;;;6.81;91.82;101051.56;5072877;28;20080;-56
2023/03/29 06:12:08;;;;;;;12.45;5.93;;;;;;;6.85;90.94;101038.97;5054820;28;20076;-59
2023/03/29 06:14:39;;;;;;;14.20;6.13;;;;;;;6.89;90.42;101041.25;5073231;28;20059;-56
2023/03/29 06:17:17;;;;;;;15.70;6.30;;;;;;;6.94;90.85;101040.88;5055941;28;20048;-56
2023/03/29 06:19:46;;;;;;;12.18;6.18;;;;;;;6.99;90.48;101045.81;5073132;28;20513;-56
2023/03/29 06:22:13;;;;;;;16.55;6.45;;;;;;;7.08;89.97;101034.50;5055203;28;20044;-56
2023/03/29 06:24:41;;;;;;;16.40;6.25;;;;;;;7.06;89.82;101045.19;5072920;28;20123;-56
2023/03/29 06:27:15;;;;;;;16.92;6.90;;;;;;;7.15;89.36;101055.94;5054952;28;20102;-58
2023/03/29 06:29:43;;;;;;;18.85;7.30;;;;;;;7.24;88.51;101049.91;5073039;28;20053;-56
2023/03/29 06:32:10;;;;;;;19.50;7.50;;;;;;;7.18;88.50;101048.59;5055322;28;20049;-56
2023/03/29 06:34:57;;;;;;;20.60;7.10;;;;;;;7.17;88.76;101056.63;5072572;28;20048;-56
2023/03/29 06:37:28;;;;;;;14.65;6.82;;;;;;;7.25;88.49;101048.97;5055440;28;20095;-56
2023/03/29 06:40:05;;;;;;;16.50;8.25;;;;;;;7.25;88.97;101051.59;5056910;28;20150;-56
2023/03/29 06:42:40;;;;;;;20.33;7.70;;;;;;;7.36;88.39;101058.63;5046968;28;20182;-56
2023/03/29 06:45:29;;;;;;;19.05;7.65;;;;;;;7.35;88.06;101057.81;5071716;28;20564;-56
2023/03/29 06:47:58;;;;;;;18.67;7.90;;;;;;;7.25;87.86;101060.34;5055059;28;20049;-56
2023/03/29 06:50:25;;;;;;;25.35;8.45;;;;;;;7.30;88.74;101063.44;5072384;28;20529;-56
2023/03/29 06:52:57;;;;;;;16.17;7.65;;;;;;;7.16;88.45;101047.91;5057564;28;20068;-55
2023/03/29 06:55:25;;;;;;;17.02;7.70;;;;;;;7.36;88.24;101063.91;5091946;28;20040;-55
2023/03/29 06:57:54;;;;;;;18.48;8.35;;;;;;;7.47;87.25;101061.22;5058606;28;20052;-56
2023/03/29 07:00:28;;;;;;;20.55;8.82;;;;;;;7.47;86.22;101069.16;5076052;28;20048;-56
2023/03/29 07:03:08;;;;;;;18.50;8.55;;;;;;;7.48;87.05;101069.03;5046468;28;20056;-56
2023/03/29 07:05:39;;;;;;;18.67;7.93;;;;;;;7.57;84.94;101067.44;5055504;28;20049;-56
2023/03/29 07:10:58;;;;;;;20.58;8.90;;;;;;;7.68;85.12;101077.13;5075058;28;20044;-55
2023/03/29 07:13:45;;;;;;;24.45;8.60;;;;;;;7.53;87.29;101071.31;5063545;28;20044;-56
2023/03/29 07:16:16;;;;;;;20.77;8.18;;;;;;;7.58;86.37;101081.47;5073742;28;20040;-55
2023/03/29 07:18:50;;;;;;;21.33;8.10;;;;;;;7.63;85.41;101081.94;5068062;28;20145;-56
2023/03/29 07:21:30;;;;;;;19.95;7.90;;;;;;;7.58;84.61;101077.03;5061792;28;20045;-56
2023/03/29 07:23:57;;;;;;;23.63;8.70;;;;;;;7.56;84.65;101084.22;5074054;28;20059;-56
2023/03/29 07:26:24;;;;;;;22.63;8.85;;;;;;;7.62;85.71;101072.31;5065306;28;20040;-56
2023/03/29 07:28:52;;;;;;;19.20;7.80;;;;;;;7.75;84.77;101080.94;5069683;28;20056;-56
2023/03/29 07:31:19;;;;;;;21.55;8.07;;;;;;;7.75;84.85;101075.66;5063355;28;20048;-56
2023/03/29 07:33:52;;;;;;;21.75;8.05;;;;;;;7.69;84.99;101078.78;5070339;28;20048;-56
2023/03/29 07:36:18;;;;;;;20.23;8.10;;;;;;;7.74;84.91;101081.88;5043493;28;20461;-56
2023/03/29 07:38:47;;;;;;;20.55;7.72;;;;;;;7.78;83.75;101079.81;5064235;28;20040;-56
2023/03/29 07:41:17;;;;;;;19.63;8.10;;;;;;;7.86;83.05;101080.03;5057140;28;20682;-56
2023/03/29 07:43:50;;;;;;;24.23;8.55;;;;;;;8.00;83.17;101092.91;5067527;28;20452;-56
2023/03/29 07:46:22;;;;;;;21.02;8.48;;;;;;;7.82;84.27;101075.97;5073353;28;20071;-59
2023/03/29 07:48:49;;;;;;;23.55;7.72;;;;;;;7.96;84.44;101086.22;5020805;28;20044;-56
2023/03/29 07:51:15;;;;;;;15.50;7.22;;;;;;;7.94;84.11;101079.38;5072573;28;20040;-56
2023/03/29 07:53:46;;;;;;;22.48;8.50;;;;;;;7.82;87.07;101079.47;5052249;28;20059;-56
2023/03/29 07:56:33;;;;;;;25.52;8.50;;;;;;;7.88;86.84;101083.38;5067622;28;20136;-56
2023/03/29 07:59:10;;;;;;;20.58;8.27;;;;;;;7.72;88.26;101080.34;5052675;28;20048;-56
2023/03/29 08:01:39;;;;;;;22.35;7.43;;;;;;;7.91;87.69;101084.91;5069536;28;20048;-56
2023/03/29 08:04:16;;;;;;;23.58;8.38;;;;;;;8.06;87.60;101084.47;5058957;28;20485;-57
2023/03/29 08:07:03;;;;;;;18.23;8.35;;;;;;;8.17;86.79;101077.47;5070961;28;20049;-61
2023/03/29 08:09:49;;;;;;;21.67;8.45;;;;;;;8.35;86.06;101085.59;5072237;28;20098;-56
2023/03/29 08:12:18;;;;;;;25.90;9.23;;;;;;;8.48;84.78;101082.78;5066757;28;20040;-56
2023/03/29 08:14:45;;;;;;;22.00;8.23;;;;;;;8.48;84.89;101083.63;5072196;28;20509;-56
2023/03/29 08:17:32;;;;;;;23.83;8.63;;;;;;;8.46;83.49;101080.28;5067481;28;20064;-56
2023/03/29 08:20:01;;;;;;;20.25;8.10;;;;;;;8.65;83.30;101085.63;5064378;28;20045;-56
2023/03/29 08:22:28;;;;;;;20.40;8.50;;;;;;;8.86;80.97;101084.75;5068580;28;20075;-56
2023/03/29 08:25:15;;;;;;;19.27;7.95;;;;;;;8.74;81.91;101094.59;5057953;28;20397;-56
2023/03/29 08:27:46;;;;;;;;;;;;;;;8.89;81.71;101096.88;5063816;28;20041;-56
2023/03/29 08:30:20;;;;;;;25.38;8.98;;;;;;;8.81;82.37;101092.25;5070593;28;19920;-56
2023/03/29 08:32:47;;;;;;;26.70;9.60;;;;;;;8.91;82.96;101089.63;5045583;28;20703;-56
2023/03/29 08:35:16;;;;;;;20.45;8.85;;;;;;;9.02;81.70;101090.38;5072966;28;20169;-56
2023/03/29 08:37:53;;;;;;;28.48;8.93;;;;;;;9.19;81.28;101083.56;5068328;28;20040;-56
2023/03/29 08:40:25;;;;;;;24.23;8.50;;;;;;;9.20;81.15;101084.41;5081279;28;20047;-56
2023/03/29 08:43:42;;;;;;;23.67;8.63;;;;;;;9.08;81.84;101077.56;5074648;28;20489;-56
2023/03/29 08:46:53;;;;;;;27.42;7.90;;;;;;;9.14;81.29;101072.56;5067412;28;20055;-56
2023/03/29 08:49:45;;;;;;;26.60;8.50;;;;;;;9.13;81.58;101078.84;5057423;28;20063;-56
2023/03/29 08:52:30;;;;;;;28.05;9.77;;;;;;;9.30;81.72;101079.97;5076278;28;20047;-56
2023/03/29 08:55:00;;;;;;;26.45;9.52;;;;;;;9.19;80.34;101074.81;5058189;28;20131;-56
2023/03/29 08:57:45;;;;;;;25.75;9.13;;;;;;;9.00;80.21;101065.00;5101230;27;20408;-55
2023/03/29 09:00:31;;;;;;;30.05;9.57;;;;;;;9.12;79.53;101058.63;5075051;28;20433;-57
2023/03/29 09:03:01;;;;;;;25.38;9.07;;;;;;;9.20;80.04;101056.16;5084930;28;20036;-56
2023/03/29 09:05:34;;;;;;;26.15;9.55;;;;;;;9.29;79.64;101059.75;5073741;28;20059;-57
2023/03/29 09:08:15;;;;;;;25.17;10.10;;;;;;;9.33;79.24;101062.97;5093748;28;20040;-54
2023/03/29 09:10:53;;;;;;;25.77;9.50;;;;;;;9.45;78.35;101067.16;5088892;28;20143;-57
2023/03/29 09:13:45;;;;;;;26.25;9.50;;;;;;;9.48;79.65;101066.91;5081962;28;20050;-57
2023/03/29 09:19:31;;;;;;;18.85;8.63;;;;;;;9.66;77.54;101079.44;5079464;27;20396;-56
2023/03/29 09:22:40;;;;;;;24.05;9.43;;;;;;;9.56;77.48;101079.44;5089313;28;20500;-56
2023/03/29 09:30:30;;;;;;;24.23;9.00;;;;;;;9.71;77.64;101069.25;5026817;28;20408;-56
2023/03/29 09:33:11;;;;;;;27.67;9.15;;;;;;;9.95;76.87;101066.16;5037687;28;20053;-56
2023/03/29 09:35:59;;;;;;;28.88;9.77;;;;;;;10.04;76.45;101070.63;5040601;28;20171;-55
2023/03/29 09:38:29;;;;;;;22.70;9.32;;;;;;;10.19;76.34;101078.97;5017814;28;20414;-55
2023/03/29 09:41:03;;;;;;;27.05;9.55;;;;;;;10.26;75.80;101072.09;5048258;28;20041;-55
2023/03/29 09:43:34;;;;;;;29.65;9.88;;;;;;;10.42;76.21;101068.84;5030513;28;20359;-56
2023/03/29 09:46:14;;;;;;;26.13;8.35;;;;;;;10.41;74.78;101079.63;5027340;28;20048;-56
2023/03/29 09:48:44;;;;;;;21.88;8.80;;;;;;;10.56;74.60;101075.50;5040607;28;20526;-56
2023/03/29 09:51:12;;;;;;;27.35;9.30;;;;;;;10.67;72.72;101075.31;5024727;28;20057;-56
2023/03/29 09:53:39;;;;;;;24.25;9.35;;;;;;;10.74;72.74;101076.41;5047714;28;20415;-57
2023/03/29 09:56:17;;;;;;;22.92;8.73;;;;;;;10.54;73.96;101077.47;5028471;28;20059;-57
2023/03/29 09:58:48;;;;;;;24.92;10.18;;;;;;;10.60;73.54;101071.59;5028832;28;20068;-57
2023/03/29 10:01:17;;;;;;;21.83;9.20;;;;;;;10.61;74.63;101070.63;5029858;28;20052;-55
2023/03/29 10:03:50;;;;;;;22.27;8.90;;;;;;;10.54;75.21;101067.69;5047323;28;20045;-55
2023/03/29 10:06:19;;;;;;;22.33;9.30;;;;;;;10.55;75.78;101063.22;5031572;28;20045;-55
2023/03/29 10:08:55;;;;;;;22.38;9.35;;;;;;;10.50;75.71;101054.88;5044745;28;20152;-56
2023/03/29 10:11:40;;;;;;;31.90;9.80;;;;;;;10.64;75.48;101048.25;5042049;28;20079;-55
2023/03/29 10:14:15;;;;;;;21.63;9.45;;;;;;;10.74;75.04;101041.91;5030154;28;20049;-55
2023/03/29 10:16:44;;;;;;;23.63;9.30;;;;;;;11.04;73.82;101036.44;5040658;28;20045;-55
2023/03/29 10:19:25;;;;;;;23.85;10.10;;;;;;;11.41;72.91;101040.78;5046934;28;20091;-55
2023/03/29 10:21:54;;;;;;;19.53;9.63;;;;;;;11.55;72.15;101039.41;5036277;28;20502;-57
2023/03/29 10:24:23;;;;;;;20.83;9.23;;;;;;;11.61;71.39;101030.84;5046397;28;20081;-55
2023/03/29 10:26:54;;;;;;;22.33;9.20;;;;;;;11.62;71.75;101029.84;5052695;28;20049;-56
2023/03/29 10:29:24;;;;;;;31.33;10.23;;;;;;;11.52;71.82;101019.31;5052157;28;20103;-56
2023/03/29 10:31:51;;;;;;;25.67;9.80;;;;;;;11.58;71.94;101018.69;5062072;28;20037;-56
2023/03/29 10:34:19;;;;;;;22.35;9.40;;;;;;;11.48;72.06;101020.59;5049861;28;20049;-57
2023/03/29 10:36:59;;;;;;;22.90;10.05;;;;;;;11.67;71.44;101028.38;5032528;28;20048;-57
2023/03/29 10:39:31;;;;;;;26.30;9.77;;;;;;;12.04;70.25;101031.81;5045333;28;20743;-57
2023/03/29 10:42:02;;;;;;;30.10;9.63;;;;;;;12.24;68.87;101024.47;5033653;28;20063;-57
2023/03/29 10:44:33;;;;;;;23.45;9.60;;;;;;;12.66;68.66;101036.97;5031750;28;20072;-57
2023/03/29 10:47:18;;;;;;;30.10;10.20;;;;;;;12.77;67.50;101041.16;5030083;28;20069;-57
2023/03/29 10:49:52;;;;;;;19.40;9.25;;;;;;;13.16;66.46;101030.78;5006247;28;20037;-57
2023/03/29 10:52:21;;;;;;;23.95;9.32;;;;;;;13.56;66.63;101031.03;5025140;28;20517;-56
2023/03/29 10:54:51;;;;;;;27.63;9.32;;;;;;;13.90;65.27;101040.66;5036935;28;20077;-57
2023/03/29 10:57:32;;;;;;;20.23;8.75;;;;;;;14.37;64.91;101031.88;5025260;28;20049;-57
2023/03/29 11:00:23;;;;;;;20.48;8.45;;;;;;;14.45;61.64;101029.22;5035927;28;20041;-57
2023/03/29 11:03:06;;;;;;;20.97;8.90;;;;;;;14.57;62.24;101018.97;5037402;28;20091;-57
2023/03/29 11:05:56;;;;;;;24.83;9.38;;;;;;;14.73;61.54;101026.09;5032369;28;20288;-57
2023/03/29 11:08:39;;;;;;;25.65;9.13;;;;;;;15.18;59.90;101013.84;5031756;28;20053;-57
2023/03/29 11:11:30;;;;;;;20.88;8.98;;;;;;;14.82;61.60;101019.72;5024314;28;20038;-56
2023/03/29 11:17:06;;;;;;;17.98;7.53;;;;;;;14.13;64.51;101022.94;5104012;27;20399;-56
2023/03/29 11:19:52;;;;;;;18.95;7.65;;;;;;;13.54;65.16;101011.72;5108317;28;20409;-56
2023/03/29 11:22:46;;;;;;;23.25;9.05;;;;;;;13.46;68.41;101014.38;5084790;28;20489;-56
2023/03/29 11:25:27;;;;;;;23.60;7.97;;;;;;;13.34;67.28;101013.88;5087265;28;20126;-56
2023/03/29 11:28:23;;;;;;;28.40;8.90;;;;;;;13.29;69.35;101006.34;5083718;28;20043;-57
2023/03/29 11:31:04;;;;;;;24.40;8.65;;;;;;;13.41;67.92;101001.56;5078759;28;20044;-56
2023/03/29 11:33:50;;;;;;;22.55;8.38;;;;;;;13.55;69.44;100998.22;5091380;28;21176;-56
2023/03/29 11:36:30;;;;;;;28.10;7.95;;;;;;;13.82;69.06;100994.38;5067316;28;20043;-56
2023/03/29 11:39:29;;;;;;;18.98;7.78;;;;;;;14.06;69.32;100989.97;5089254;28;20040;-56
2023/03/29 11:42:06;;;;;;;17.50;6.03;;;;;;;14.02;66.07;100986.81;5082134;28;20063;-57
2023/03/29 11:44:35;;;;;;;14.63;5.72;;;;;;;13.61;66.63;100994.06;5089272;28;20131;-56
2023/03/29 11:47:14;;;;;;;17.52;5.35;;;;;;;13.63;67.22;100984.06;5094654;28;20051;-56
2023/03/29 11:49:48;;;;;;;16.45;5.30;;;;;;;13.59;67.82;100978.22;5088488;28;20435;-56
2023/03/29 11:52:22;;;;;;;21.73;5.60;;;;;;;13.66;67.86;100981.06;5076461;28;20654;-56
2023/03/29 11:54:57;;;;;;;18.50;5.60;;;;;;;13.85;66.70;100976.34;5094141;28;20071;-57
2023/03/29 11:57:30;;;;;;;15.98;5.55;;;;;;;13.86;66.23;100975.34;5093657;28;20044;-56
2023/03/29 12:00:20;;;;;;;19.00;6.05;;;;;;;14.20;66.03;100973.25;5084386;28;20048;-56
2023/03/29 12:02:54;;;;;;;20.20;5.30;;;;;;;14.39;65.54;100974.69;5093556;28;20054;-56
2023/03/29 12:05:44;;;;;;;20.58;5.93;;;;;;;14.33;65.74;100967.34;5082252;28;20037;-56
2023/03/29 12:08:17;;;;;;;21.90;5.70;;;;;;;14.39;65.92;100980.03;5067781;28;20050;-56
2023/03/29 12:10:51;;;;;;;17.60;5.63;;;;;;;14.48;66.39;100969.28;5093058;28;20630;-55
2023/03/29 12:13:27;;;;;;;17.77;5.60;;;;;;;14.61;66.54;100961.59;5082406;28;20040;-55